createdAt,value
2022-12-31T00:02:17.396Z,9.43
2022-12-31T00:04:43.947Z,9.30
2022-12-31T00:07:10.450Z,9.27
2022-12-31T00:09:36.788Z,8.93
2022-12-31T00:12:03.361Z,8.87
2022-12-31T00:14:29.831Z,11.53
2022-12-31T00:16:56.386Z,9.60
2022-12-31T00:19:22.742Z,11.50
2022-12-31T00:21:49.139Z,9.20
2022-12-31T00:24:15.478Z,9.27
2022-12-31T00:26:42.054Z,9.93
2022-12-31T00:29:08.395Z,8.93
2022-12-31T00:31:37.549Z,8.83
2022-12-31T00:34:04.772Z,9.13
2022-12-31T00:36:36.684Z,8.47
2022-12-31T00:39:04.713Z,8.47
2022-12-31T00:41:31.856Z,9.00
2022-12-31T00:43:58.685Z,8.40
2022-12-31T00:46:25.654Z,7.80
2022-12-31T00:48:52.591Z,8.73
2022-12-31T00:51:22.177Z,9.17
2022-12-31T00:53:49.102Z,8.50
2022-12-31T00:56:23.798Z,9.20
2022-12-31T00:58:50.687Z,8.00
2022-12-31T01:01:18.536Z,10.10
2022-12-31T01:03:45.916Z,7.87
2022-12-31T01:06:12.637Z,8.33
2022-12-31T01:08:39.168Z,8.43
2022-12-31T01:11:23.868Z,7.70
2022-12-31T01:13:54.705Z,8.27
2022-12-31T01:16:24.137Z,7.30
2022-12-31T01:18:51.334Z,8.83
2022-12-31T01:21:18.689Z,7.57
2022-12-31T01:23:45.338Z,8.43
2022-12-31T01:26:14.421Z,8.50
2022-12-31T01:28:41.057Z,6.80
2022-12-31T01:31:11.928Z,6.47
2022-12-31T01:33:39.090Z,8.60
2022-12-31T01:36:14.304Z,8.40
2022-12-31T01:38:41.520Z,7.43
2022-12-31T01:41:12.094Z,10.80
2022-12-31T01:43:54.242Z,7.47
2022-12-31T01:46:37.752Z,7.07
2022-12-31T01:49:23.719Z,7.37
2022-12-31T01:51:58.108Z,13.23
2022-12-31T01:54:28.647Z,8.20
2022-12-31T01:56:56.513Z,9.30
2022-12-31T01:59:26.714Z,8.13
2022-12-31T02:01:53.495Z,8.07
2022-12-31T02:04:23.372Z,8.10
2022-12-31T02:06:54.943Z,7.27
2022-12-31T02:09:21.353Z,6.77
2022-12-31T02:11:48.057Z,7.17
2022-12-31T02:14:34.082Z,7.57
2022-12-31T02:17:28.389Z,7.20
2022-12-31T02:20:34.583Z,7.00
2022-12-31T02:23:27.955Z,7.07
2022-12-31T02:26:10.714Z,7.53
2022-12-31T02:29:07.172Z,6.70
2022-12-31T02:31:39.308Z,7.00
2022-12-31T02:34:29.115Z,6.70
2022-12-31T02:36:59.300Z,9.03
2022-12-31T02:39:26.203Z,6.60
2022-12-31T02:41:52.743Z,7.40
2022-12-31T02:44:28.669Z,7.20
2022-12-31T02:47:07.289Z,7.67
2022-12-31T02:49:58.184Z,7.03
2022-12-31T02:52:49.030Z,6.93
2022-12-31T02:55:28.214Z,5.77
2022-12-31T02:58:47.342Z,5.50
2022-12-31T03:01:39.113Z,5.73
2022-12-31T03:04:24.130Z,5.30
2022-12-31T03:06:51.861Z,4.83
2022-12-31T03:09:18.448Z,10.50
2022-12-31T03:12:04.112Z,6.53
2022-12-31T03:14:30.572Z,4.97
2022-12-31T03:16:56.915Z,4.77
2022-12-31T03:19:41.966Z,5.20
2022-12-31T03:22:27.401Z,5.07
2022-12-31T03:25:19.174Z,4.60
2022-12-31T03:27:47.080Z,4.53
2022-12-31T03:30:15.662Z,6.97
2022-12-31T03:32:43.709Z,5.23
2022-12-31T03:35:12.021Z,4.40
2022-12-31T03:37:40.148Z,5.10
2022-12-31T03:40:08.845Z,4.80
2022-12-31T03:42:35.374Z,4.37
2022-12-31T03:45:01.987Z,4.30
2022-12-31T03:47:28.780Z,4.27
2022-12-31T03:49:55.111Z,4.10
2022-12-31T03:52:21.708Z,5.03
2022-12-31T03:54:48.060Z,4.10
2022-12-31T03:57:14.519Z,4.87
2022-12-31T03:59:40.918Z,5.80
2022-12-31T04:02:07.673Z,4.47
2022-12-31T04:04:34.280Z,4.80
2022-12-31T04:07:00.797Z,5.70
2022-12-31T04:09:27.209Z,6.87
2022-12-31T04:11:53.535Z,6.20
2022-12-31T04:14:20.129Z,5.57
2022-12-31T04:16:46.521Z,6.30
2022-12-31T04:19:13.242Z,7.17
2022-12-31T04:21:39.653Z,6.70
2022-12-31T04:24:07.077Z,6.00
2022-12-31T04:26:33.948Z,6.27
2022-12-31T04:29:00.353Z,7.40
2022-12-31T04:31:27.065Z,6.43
2022-12-31T04:33:53.585Z,6.90
2022-12-31T04:36:19.930Z,7.80
2022-12-31T04:38:46.322Z,7.27
2022-12-31T04:41:19.077Z,5.93
2022-12-31T04:43:50.329Z,6.60
2022-12-31T04:46:18.520Z,6.00
2022-12-31T04:48:44.976Z,6.03
2022-12-31T04:51:11.815Z,6.00
2022-12-31T04:53:38.204Z,5.23
2022-12-31T04:56:05.027Z,4.57
2022-12-31T04:58:32.222Z,3.80
2022-12-31T05:00:59.012Z,4.23
2022-12-31T05:03:26.864Z,4.47
2022-12-31T05:05:54.363Z,4.47
2022-12-31T05:08:21.288Z,5.27
2022-12-31T05:10:49.177Z,5.97
2022-12-31T05:13:16.086Z,5.27
2022-12-31T05:15:42.637Z,4.40
2022-12-31T05:18:09.211Z,4.50
2022-12-31T05:20:35.562Z,3.90
2022-12-31T05:23:02.277Z,4.30
2022-12-31T05:25:28.618Z,3.53
2022-12-31T05:27:55.192Z,4.23
2022-12-31T05:30:21.990Z,4.93
2022-12-31T05:32:48.374Z,3.20
2022-12-31T05:35:14.949Z,4.20
2022-12-31T05:37:41.508Z,2.90
2022-12-31T05:40:08.550Z,3.50
2022-12-31T05:42:35.009Z,3.13
2022-12-31T05:45:01.370Z,3.60
2022-12-31T05:47:27.877Z,4.33
2022-12-31T05:49:54.246Z,3.40
2022-12-31T05:52:21.003Z,3.40
2022-12-31T05:54:47.439Z,3.77
2022-12-31T05:57:13.983Z,4.33
2022-12-31T05:59:40.435Z,3.87
2022-12-31T06:02:07.005Z,3.50
2022-12-31T06:04:33.418Z,3.90
2022-12-31T06:06:59.905Z,4.07
2022-12-31T06:09:26.292Z,4.60
2022-12-31T06:11:52.713Z,3.13
2022-12-31T06:14:19.144Z,3.97
2022-12-31T06:16:45.628Z,3.07
2022-12-31T06:19:11.989Z,2.87
2022-12-31T06:21:38.359Z,2.30
2022-12-31T06:24:05.083Z,2.50
2022-12-31T06:26:31.671Z,2.17
2022-12-31T06:28:58.012Z,2.13
2022-12-31T06:31:24.440Z,1.80
2022-12-31T06:33:50.813Z,1.40
2022-12-31T06:36:17.199Z,1.60
2022-12-31T06:38:44.317Z,3.73
2022-12-31T06:41:13.572Z,1.50
2022-12-31T06:43:40.539Z,1.30
2022-12-31T06:46:10.354Z,1.27
2022-12-31T06:48:37.436Z,2.13
2022-12-31T06:51:15.018Z,2.70
2022-12-31T06:53:44.002Z,1.30
2022-12-31T06:56:26.482Z,5.93
2022-12-31T06:58:55.133Z,1.70
2022-12-31T07:01:44.241Z,1.40
2022-12-31T07:04:33.349Z,1.83
2022-12-31T07:07:08.140Z,1.63
2022-12-31T07:09:55.428Z,1.67
2022-12-31T07:12:36.598Z,2.00
2022-12-31T07:15:14.696Z,4.83
2022-12-31T07:18:02.804Z,1.87
2022-12-31T07:20:29.383Z,2.10
2022-12-31T07:22:56.175Z,1.63
2022-12-31T07:25:23.464Z,1.60
2022-12-31T07:28:21.102Z,1.30
2022-12-31T07:30:52.083Z,1.30
2022-12-31T07:33:21.370Z,1.70
2022-12-31T07:36:27.122Z,1.40
2022-12-31T07:39:02.990Z,1.70
2022-12-31T07:41:43.543Z,2.00
2022-12-31T07:44:47.948Z,2.13
2022-12-31T07:47:21.439Z,1.50
2022-12-31T07:49:48.216Z,3.10
2022-12-31T07:52:15.080Z,1.70
2022-12-31T07:54:41.543Z,2.67
2022-12-31T07:57:11.432Z,4.53
2022-12-31T08:00:12.956Z,5.80
2022-12-31T08:02:57.462Z,6.10
2022-12-31T08:05:37.918Z,5.00
2022-12-31T08:08:29.542Z,6.40
2022-12-31T08:11:13.173Z,4.67
2022-12-31T08:13:42.497Z,3.47
2022-12-31T08:16:12.980Z,3.07
2022-12-31T08:18:39.900Z,6.80
2022-12-31T08:21:06.423Z,3.20
2022-12-31T08:23:40.945Z,3.70
2022-12-31T08:26:31.407Z,4.10
2022-12-31T08:29:04.931Z,4.33
2022-12-31T08:32:02.757Z,2.23
2022-12-31T08:34:48.429Z,2.43
2022-12-31T08:37:33.110Z,2.30
2022-12-31T08:40:11.111Z,2.20
2022-12-31T08:43:07.061Z,2.87
2022-12-31T08:45:39.038Z,3.20
2022-12-31T08:48:38.713Z,2.20
2022-12-31T08:51:05.666Z,2.37
2022-12-31T08:53:32.296Z,2.13
2022-12-31T08:56:09.685Z,9.30
2022-12-31T08:59:03.859Z,1.80
2022-12-31T09:01:47.523Z,2.67
2022-12-31T09:04:51.121Z,2.60
2022-12-31T09:07:27.829Z,2.07
2022-12-31T09:10:39.240Z,1.90
2022-12-31T09:13:33.283Z,1.60
2022-12-31T09:16:15.043Z,2.50
2022-12-31T09:18:42.976Z,2.00
2022-12-31T09:21:14.481Z,1.50
2022-12-31T09:23:41.417Z,1.50
2022-12-31T09:26:44.939Z,1.73
2022-12-31T09:29:26.540Z,3.43
2022-12-31T09:32:03.361Z,2.70
2022-12-31T09:34:40.165Z,4.40
2022-12-31T09:37:15.194Z,2.67
2022-12-31T09:39:43.861Z,2.87
2022-12-31T09:42:31.988Z,3.10
2022-12-31T09:45:24.750Z,3.40
2022-12-31T09:48:34.010Z,3.73
2022-12-31T09:51:29.337Z,4.13
2022-12-31T09:54:21.016Z,2.93
2022-12-31T09:57:20.210Z,3.50
2022-12-31T09:59:57.247Z,3.50
2022-12-31T10:02:49.084Z,3.50
2022-12-31T10:05:27.860Z,3.70
2022-12-31T10:08:50.044Z,2.93
2022-12-31T10:11:31.642Z,3.43
2022-12-31T10:14:43.687Z,3.20
2022-12-31T10:17:54.572Z,3.90
2022-12-31T10:20:33.516Z,4.73
2022-12-31T10:23:10.230Z,5.00
2022-12-31T10:25:57.113Z,3.60
2022-12-31T10:28:42.210Z,2.53
2022-12-31T10:31:39.449Z,2.90
2022-12-31T10:34:14.568Z,4.90
2022-12-31T10:37:06.101Z,3.87
2022-12-31T10:40:04.876Z,2.73
2022-12-31T10:43:02.261Z,2.13
2022-12-31T10:45:50.250Z,3.30
2022-12-31T10:48:53.931Z,2.10
2022-12-31T10:51:48.122Z,2.30
2022-12-31T10:54:52.222Z,2.10
2022-12-31T10:57:43.683Z,3.30
2022-12-31T11:00:21.572Z,2.87
2022-12-31T11:03:19.988Z,2.67
2022-12-31T11:06:08.812Z,2.47
2022-12-31T11:09:16.211Z,2.43
2022-12-31T11:11:46.477Z,1.80
2022-12-31T11:14:50.210Z,2.00
2022-12-31T11:17:38.325Z,2.57
2022-12-31T11:20:23.866Z,2.17
2022-12-31T11:23:22.769Z,1.93
2022-12-31T11:25:55.227Z,3.90
2022-12-31T11:28:43.528Z,2.30
2022-12-31T11:31:37.188Z,2.50
2022-12-31T11:34:19.954Z,2.10
2022-12-31T11:37:01.475Z,2.10
2022-12-31T11:39:47.741Z,2.67
2022-12-31T11:42:22.234Z,2.53
2022-12-31T11:44:55.446Z,2.53
2022-12-31T11:47:56.548Z,2.17
2022-12-31T11:50:45.837Z,2.27
2022-12-31T11:53:34.526Z,2.80
2022-12-31T11:56:12.618Z,2.10
2022-12-31T11:58:45.370Z,2.30
2022-12-31T12:01:17.380Z,2.13
2022-12-31T12:03:45.141Z,1.80
2022-12-31T12:06:14.057Z,1.73
2022-12-31T12:08:41.828Z,1.50
2022-12-31T12:11:18.886Z,1.47
2022-12-31T12:13:45.524Z,1.70
2022-12-31T12:16:13.117Z,2.70
2022-12-31T12:18:46.365Z,2.80
2022-12-31T12:21:16.458Z,2.73
2022-12-31T12:23:58.232Z,1.30
2022-12-31T12:26:34.882Z,1.40
2022-12-31T12:29:22.918Z,1.40
2022-12-31T12:31:59.726Z,1.30
2022-12-31T12:34:32.050Z,1.50
2022-12-31T12:36:58.925Z,2.90
2022-12-31T12:39:30.736Z,1.20
2022-12-31T12:42:15.762Z,1.20
2022-12-31T12:44:42.654Z,1.30
2022-12-31T12:47:15.906Z,3.13
2022-12-31T12:49:46.284Z,1.57
2022-12-31T12:52:21.768Z,1.50
2022-12-31T12:55:30.563Z,1.43
2022-12-31T12:58:19.411Z,1.93
2022-12-31T13:01:18.996Z,2.10
2022-12-31T13:04:35.547Z,2.00
2022-12-31T13:07:19.199Z,2.23
2022-12-31T13:09:57.781Z,1.50
2022-12-31T13:13:13.836Z,1.30
2022-12-31T13:15:39.109Z,1.77
2022-12-31T13:18:43.146Z,1.60
2022-12-31T13:21:33.448Z,1.63
2022-12-31T13:24:29.270Z,1.50
2022-12-31T13:27:10.247Z,5.50
2022-12-31T13:29:38.783Z,1.60
2022-12-31T13:32:10.933Z,2.27
2022-12-31T13:34:42.159Z,3.03
2022-12-31T13:37:37.825Z,1.47
2022-12-31T13:40:21.074Z,1.80
2022-12-31T13:43:15.231Z,1.30
2022-12-31T13:45:46.191Z,2.93
2022-12-31T13:48:18.346Z,1.73
2022-12-31T13:50:52.680Z,1.70
2022-12-31T13:53:38.579Z,1.47
2022-12-31T13:56:19.913Z,1.40
2022-12-31T13:58:53.183Z,1.53
2022-12-31T14:01:42.980Z,1.40
2022-12-31T14:04:20.833Z,1.87
2022-12-31T14:07:01.099Z,2.03
2022-12-31T14:09:31.438Z,1.70
2022-12-31T14:12:25.609Z,3.80
2022-12-31T14:15:13.755Z,2.10
2022-12-31T14:17:46.062Z,2.00
2022-12-31T14:20:23.402Z,2.17
2022-12-31T14:22:59.087Z,1.97
2022-12-31T14:25:33.553Z,3.03
2022-12-31T14:28:03.893Z,2.27
2022-12-31T14:30:36.985Z,2.50
2022-12-31T14:33:28.410Z,1.97
2022-12-31T14:36:10.352Z,2.03
2022-12-31T14:39:06.617Z,2.20
2022-12-31T14:41:55.011Z,2.27
2022-12-31T14:44:55.644Z,2.97
2022-12-31T14:47:39.747Z,2.30
2022-12-31T14:50:12.110Z,2.07
2022-12-31T14:52:55.066Z,4.13
2022-12-31T14:55:23.520Z,2.20
2022-12-31T15:00:39.760Z,2.73
2022-12-31T15:03:23.656Z,3.10
2022-12-31T15:06:01.950Z,4.33
2022-12-31T15:08:55.940Z,2.50
2022-12-31T15:11:59.999Z,2.97
2022-12-31T15:14:53.964Z,2.90
2022-12-31T15:17:54.047Z,3.77
2022-12-31T15:20:31.663Z,2.80
2022-12-31T15:22:58.076Z,2.90
2022-12-31T15:25:24.421Z,4.27
2022-12-31T15:27:51.431Z,4.27
2022-12-31T15:30:33.088Z,2.83
2022-12-31T15:33:05.015Z,3.10
2022-12-31T15:35:44.263Z,2.40
2022-12-31T15:38:10.523Z,2.43
2022-12-31T15:40:46.168Z,2.63
2022-12-31T15:43:24.876Z,3.07
2022-12-31T15:45:54.371Z,3.43
2022-12-31T15:48:44.561Z,3.47
2022-12-31T15:51:50.314Z,3.73
2022-12-31T15:54:40.593Z,2.30
2022-12-31T15:57:16.046Z,2.73
2022-12-31T15:59:42.473Z,2.87
2022-12-31T16:02:25.652Z,7.90
2022-12-31T16:04:52.959Z,2.87
2022-12-31T16:07:19.477Z,3.83
2022-12-31T16:09:52.075Z,5.97
2022-12-31T16:12:33.695Z,3.00
2022-12-31T16:15:02.852Z,2.70
2022-12-31T16:17:32.197Z,2.80
2022-12-31T16:20:00.416Z,8.07
2022-12-31T16:22:38.613Z,3.40
2022-12-31T16:27:54.591Z,5.33
2022-12-31T16:30:32.951Z,1.97
2022-12-31T16:33:02.333Z,3.97
2022-12-31T16:35:36.846Z,3.70
2022-12-31T16:38:18.238Z,4.57
2022-12-31T16:41:02.777Z,3.53
2022-12-31T16:43:43.131Z,5.23
2022-12-31T16:46:19.296Z,5.20
2022-12-31T16:48:53.416Z,3.00
2022-12-31T16:51:24.502Z,2.93
2022-12-31T16:53:51.944Z,2.90
2022-12-31T16:56:30.437Z,5.53
2022-12-31T16:59:16.320Z,4.23
2022-12-31T17:01:43.542Z,3.00
2022-12-31T17:04:14.593Z,3.07
2022-12-31T17:06:42.537Z,2.70
2022-12-31T17:09:20.451Z,4.30
2022-12-31T17:11:55.872Z,2.67
2022-12-31T17:14:28.404Z,2.47
2022-12-31T17:17:02.639Z,2.50
2022-12-31T17:19:35.714Z,3.60
2022-12-31T17:22:03.505Z,4.77
2022-12-31T17:24:29.892Z,7.67
2022-12-31T17:27:04.636Z,9.20
2022-12-31T17:29:31.919Z,10.20
2022-12-31T17:32:01.201Z,5.13
2022-12-31T17:34:47.165Z,10.73
2022-12-31T17:37:26.000Z,24.20
2022-12-31T17:39:54.532Z,20.20
2022-12-31T17:42:34.317Z,26.40
2022-12-31T17:45:05.238Z,19.77
2022-12-31T17:47:37.955Z,8.43
2022-12-31T17:50:22.943Z,3.83
2022-12-31T17:52:49.476Z,3.60
2022-12-31T17:55:16.699Z,3.23
2022-12-31T17:57:51.961Z,3.80
2022-12-31T18:00:21.246Z,6.03
2022-12-31T18:02:47.999Z,7.00
2022-12-31T18:05:22.765Z,3.83
2022-12-31T18:07:49.538Z,5.63
2022-12-31T18:10:18.983Z,8.23
2022-12-31T18:12:46.614Z,15.17
2022-12-31T18:15:17.968Z,11.00
2022-12-31T18:17:45.106Z,8.40
2022-12-31T18:20:12.603Z,7.67
2022-12-31T18:22:41.468Z,10.83
2022-12-31T18:25:13.366Z,7.10
2022-12-31T18:27:42.073Z,6.37
2022-12-31T18:30:12.159Z,11.43
2022-12-31T18:32:41.370Z,10.10
2022-12-31T18:35:57.721Z,5.20
2022-12-31T18:38:15.012Z,4.33
2022-12-31T18:40:46.534Z,14.83
2022-12-31T18:43:18.424Z,6.43
2022-12-31T18:45:47.019Z,12.03
2022-12-31T18:48:13.759Z,6.87
2022-12-31T18:50:40.938Z,11.37
2022-12-31T18:53:08.251Z,8.17
2022-12-31T18:55:40.634Z,15.23
2022-12-31T18:58:08.048Z,18.00
2022-12-31T19:00:35.154Z,14.53
2022-12-31T19:03:02.032Z,13.90
2022-12-31T19:05:30.870Z,13.10
2022-12-31T19:07:57.470Z,8.27
2022-12-31T19:10:25.177Z,12.10
2022-12-31T19:12:51.678Z,11.87
2022-12-31T19:15:25.520Z,9.50
2022-12-31T19:17:52.036Z,11.67
2022-12-31T19:20:18.597Z,23.70
2022-12-31T19:22:44.997Z,11.80
2022-12-31T19:25:32.413Z,31.60
2022-12-31T19:27:59.125Z,11.87
2022-12-31T19:30:28.777Z,11.37
2022-12-31T19:32:58.515Z,15.03
2022-12-31T19:35:25.835Z,9.63
2022-12-31T19:37:54.423Z,10.50
2022-12-31T19:40:24.170Z,4.80
2022-12-31T19:42:53.337Z,22.60
2022-12-31T19:45:22.244Z,8.97
2022-12-31T19:47:49.292Z,7.20
2022-12-31T19:50:18.735Z,14.03
2022-12-31T19:52:47.281Z,10.20
2022-12-31T19:55:17.137Z,14.83
2022-12-31T19:57:43.630Z,13.00
2022-12-31T20:00:11.794Z,9.40
2022-12-31T20:02:38.730Z,6.40
2022-12-31T20:05:05.513Z,12.70
2022-12-31T20:07:32.112Z,21.53
2022-12-31T20:09:58.456Z,12.63
2022-12-31T20:12:24.952Z,12.33
2022-12-31T20:14:51.287Z,7.87
2022-12-31T20:17:17.769Z,5.20
2022-12-31T20:19:44.221Z,10.30
2022-12-31T20:22:10.631Z,7.47
2022-12-31T20:24:37.006Z,8.70
2022-12-31T20:27:03.825Z,6.53
2022-12-31T20:29:30.228Z,7.77
2022-12-31T20:31:56.685Z,6.47
2022-12-31T20:34:23.022Z,7.70
2022-12-31T20:36:49.541Z,4.47
2022-12-31T20:39:15.929Z,4.57
2022-12-31T20:41:42.342Z,4.90
2022-12-31T20:44:08.796Z,3.60
2022-12-31T20:46:35.747Z,7.40
2022-12-31T20:49:03.931Z,7.93
2022-12-31T20:51:33.211Z,4.87
2022-12-31T20:54:05.997Z,20.43
2022-12-31T20:56:34.485Z,8.40
2022-12-31T20:59:01.548Z,6.57
2022-12-31T21:01:41.671Z,4.60
2022-12-31T21:04:15.621Z,4.77
2022-12-31T21:06:42.122Z,8.73
2022-12-31T21:09:08.878Z,6.33
2022-12-31T21:11:54.006Z,6.60
2022-12-31T21:14:20.879Z,9.50
2022-12-31T21:16:47.486Z,7.53
2022-12-31T21:19:13.831Z,21.57
2022-12-31T21:21:40.249Z,7.53
2022-12-31T21:24:06.760Z,6.20
2022-12-31T21:26:33.458Z,10.90
2022-12-31T21:29:00.126Z,4.50
2022-12-31T21:31:29.374Z,18.57
2022-12-31T21:33:55.911Z,8.50
2022-12-31T21:36:22.312Z,6.90
2022-12-31T21:38:49.267Z,7.57
2022-12-31T21:41:35.254Z,4.93
2022-12-31T21:44:02.143Z,5.20
2022-12-31T21:46:29.034Z,5.83
2022-12-31T21:48:57.740Z,5.70
2022-12-31T21:51:24.525Z,7.10
2022-12-31T21:53:51.757Z,3.30
2022-12-31T21:56:21.064Z,4.37
2022-12-31T21:59:13.198Z,6.20
2022-12-31T22:01:59.130Z,7.77
2022-12-31T22:07:12.545Z,4.10
2022-12-31T22:09:38.931Z,5.70
2022-12-31T22:12:07.053Z,7.70
2022-12-31T22:14:39.317Z,4.53
2022-12-31T22:17:25.652Z,7.10
2022-12-31T22:20:25.246Z,3.60
2022-12-31T22:22:38.602Z,6.63
2022-12-31T22:25:05.656Z,6.53
2022-12-31T22:27:32.000Z,4.30
2022-12-31T22:29:58.379Z,5.30
2022-12-31T22:32:24.713Z,8.27
2022-12-31T22:34:51.228Z,4.23
2022-12-31T22:37:54.408Z,10.77
2022-12-31T22:40:04.536Z,5.43
2022-12-31T22:42:30.876Z,6.00
2022-12-31T22:44:57.406Z,6.47
2022-12-31T22:47:23.748Z,7.13
2022-12-31T22:49:50.121Z,6.63
2022-12-31T22:52:16.469Z,7.50
2022-12-31T22:54:43.060Z,9.17
2022-12-31T22:57:17.829Z,8.80
2022-12-31T22:59:46.464Z,4.83
2022-12-31T23:02:12.836Z,9.60
2022-12-31T23:04:39.891Z,9.23
2022-12-31T23:07:07.519Z,31.53
2022-12-31T23:09:52.768Z,25.23
2022-12-31T23:12:19.208Z,33.37
2022-12-31T23:15:04.490Z,48.17
2022-12-31T23:17:49.178Z,44.70
2022-12-31T23:20:37.651Z,49.80
2022-12-31T23:23:11.563Z,41.23
2022-12-31T23:25:44.048Z,49.67
2022-12-31T23:28:20.164Z,23.17
2022-12-31T23:30:46.590Z,37.60
2022-12-31T23:33:30.945Z,21.50
2022-12-31T23:36:05.056Z,17.37
2022-12-31T23:38:31.465Z,31.13
2022-12-31T23:40:57.920Z,24.70
2022-12-31T23:43:24.496Z,18.23
2022-12-31T23:45:51.109Z,15.37
2022-12-31T23:48:17.544Z,7.90
2022-12-31T23:50:49.200Z,10.57
2022-12-31T23:53:18.995Z,18.20
2022-12-31T23:55:45.328Z,16.30
2022-12-31T23:58:11.848Z,14.20
